createdAt,value
2022-08-17T00:03:34.270Z,0
2022-08-17T00:08:34.286Z,0
2022-08-17T00:13:34.287Z,0
2022-08-17T00:18:54.147Z,0
2022-08-17T00:23:34.259Z,0
2022-08-17T00:28:34.283Z,0
2022-08-17T00:33:34.280Z,0
2022-08-17T00:38:34.244Z,0
2022-08-17T00:43:34.268Z,0
2022-08-17T00:48:34.285Z,0
2022-08-17T00:53:34.254Z,0
2022-08-17T00:58:36.008Z,0
2022-08-17T01:03:34.277Z,0
2022-08-17T01:08:34.324Z,0
2022-08-17T01:13:39.701Z,0
2022-08-17T01:18:34.255Z,0
2022-08-17T01:23:34.263Z,0
2022-08-17T01:28:53.347Z,0
2022-08-17T01:33:34.260Z,0
2022-08-17T01:38:34.235Z,0
2022-08-17T01:43:34.276Z,0
2022-08-17T01:48:34.275Z,0
2022-08-17T01:53:34.237Z,0
2022-08-17T01:58:34.284Z,0
2022-08-17T02:03:34.249Z,0
2022-08-17T02:08:37.412Z,0
2022-08-17T02:13:34.230Z,0
2022-08-17T02:18:34.209Z,0
2022-08-17T02:23:34.264Z,0
2022-08-17T02:28:34.244Z,0
2022-08-17T02:33:37.221Z,0
2022-08-17T02:38:34.241Z,0
2022-08-17T02:43:34.249Z,0
2022-08-17T02:48:34.214Z,0
2022-08-17T02:53:35.523Z,0
2022-08-17T02:58:34.873Z,0
2022-08-17T03:03:34.243Z,0
2022-08-17T03:08:34.236Z,0
2022-08-17T03:13:34.227Z,0
2022-08-17T03:18:34.222Z,0
2022-08-17T03:23:34.205Z,0
2022-08-17T03:28:34.245Z,0
2022-08-17T03:33:34.207Z,0
2022-08-17T03:38:38.875Z,0
2022-08-17T03:43:34.186Z,0
2022-08-17T03:48:34.221Z,0
2022-08-17T03:53:34.218Z,0
2022-08-17T03:58:34.250Z,0
2022-08-17T04:03:34.188Z,0
2022-08-17T04:08:34.205Z,0
2022-08-17T04:13:34.197Z,0
2022-08-17T04:18:34.217Z,2
2022-08-17T04:23:34.181Z,9
2022-08-17T04:28:34.192Z,8
2022-08-17T04:33:34.189Z,8
2022-08-17T04:38:34.187Z,9
2022-08-17T04:43:34.174Z,10
2022-08-17T04:48:36.809Z,14
2022-08-17T04:53:34.183Z,26
2022-08-17T04:58:34.184Z,31
2022-08-17T05:03:34.210Z,34
2022-08-17T05:08:34.210Z,38
2022-08-17T05:13:34.163Z,41
2022-08-17T05:18:34.218Z,40
2022-08-17T05:23:42.136Z,42
2022-08-17T05:28:34.258Z,49
2022-08-17T05:33:34.202Z,54
2022-08-17T05:38:34.184Z,58
2022-08-17T05:43:34.202Z,63
2022-08-17T05:48:35.744Z,67
2022-08-17T05:53:35.204Z,72
2022-08-17T05:58:34.151Z,77
2022-08-17T06:03:34.170Z,81
2022-08-17T06:08:34.187Z,95
2022-08-17T06:13:34.160Z,105
2022-08-17T06:18:34.170Z,108
2022-08-17T06:23:34.185Z,106
2022-08-17T06:28:34.181Z,104
2022-08-17T06:33:34.484Z,105
2022-08-17T06:38:38.132Z,113
2022-08-17T06:43:34.185Z,113
2022-08-17T06:48:34.153Z,123
2022-08-17T06:53:34.163Z,168
2022-08-17T06:58:34.151Z,171
2022-08-17T07:03:34.153Z,157
2022-08-17T07:08:35.230Z,179
2022-08-17T07:13:34.176Z,185
2022-08-17T07:18:34.146Z,191
2022-08-17T07:23:34.113Z,225
2022-08-17T07:28:34.147Z,298
2022-08-17T07:33:34.154Z,278
2022-08-17T07:38:34.168Z,296
2022-08-17T07:43:34.129Z,304
2022-08-17T07:48:34.179Z,363
2022-08-17T07:53:34.152Z,426
2022-08-17T07:58:34.160Z,245
2022-08-17T08:03:34.138Z,268
2022-08-17T08:08:34.141Z,413
2022-08-17T08:13:34.137Z,479
2022-08-17T08:18:38.527Z,375
2022-08-17T08:23:34.159Z,347
2022-08-17T08:28:34.144Z,367
2022-08-17T08:33:34.142Z,303
2022-08-17T08:38:34.196Z,244
2022-08-17T08:43:34.153Z,245
2022-08-17T08:48:46.388Z,231
2022-08-17T08:53:34.165Z,230
2022-08-17T08:58:41.208Z,260
2022-08-17T09:03:51.454Z,268
2022-08-17T09:08:34.143Z,297
2022-08-17T09:13:34.119Z,315
2022-08-17T09:18:59.728Z,493
2022-08-17T09:23:34.109Z,391
2022-08-17T09:28:34.110Z,417
2022-08-17T09:33:34.139Z,699
2022-08-17T09:38:34.114Z,481
2022-08-17T09:43:34.188Z,626
2022-08-17T09:48:34.116Z,526
2022-08-17T09:53:34.134Z,504
2022-08-17T09:58:34.150Z,624
2022-08-17T10:03:34.121Z,625
2022-08-17T10:08:34.155Z,397
2022-08-17T10:13:34.279Z,400
2022-08-17T10:18:34.092Z,444
2022-08-17T10:23:34.102Z,488
2022-08-17T10:28:34.140Z,479
2022-08-17T10:33:34.112Z,420
2022-08-17T10:38:34.144Z,388
2022-08-17T10:43:34.133Z,330
2022-08-17T10:48:34.122Z,268
2022-08-17T10:53:34.109Z,277
2022-08-17T10:58:34.166Z,306
2022-08-17T11:03:34.119Z,313
2022-08-17T11:08:34.124Z,367
2022-08-17T11:13:34.109Z,613
2022-08-17T11:18:34.070Z,516
2022-08-17T11:23:34.091Z,387
2022-08-17T11:28:34.459Z,277
2022-08-17T11:33:36.703Z,279
2022-08-17T11:38:34.354Z,291
2022-08-17T11:43:34.379Z,316
2022-08-17T11:48:34.596Z,360
2022-08-17T11:53:34.351Z,345
2022-08-17T11:58:34.420Z,262
2022-08-17T12:03:34.416Z,226
2022-08-17T12:08:34.353Z,203
2022-08-17T12:13:34.671Z,175
2022-08-17T12:18:34.330Z,170
2022-08-17T12:23:34.354Z,244
2022-08-17T12:28:34.378Z,413
2022-08-17T12:33:34.576Z,771
2022-08-17T12:38:34.734Z,560
2022-08-17T12:43:34.624Z,362
2022-08-17T12:48:34.597Z,288
2022-08-17T12:53:34.603Z,223
2022-08-17T12:58:34.572Z,195
2022-08-17T13:03:36.545Z,182
2022-08-17T13:08:34.586Z,130
2022-08-17T13:13:34.589Z,122
2022-08-17T13:18:34.632Z,138
2022-08-17T13:23:34.599Z,118
2022-08-17T13:28:35.833Z,112
2022-08-17T13:33:43.582Z,106
2022-08-17T13:38:35.123Z,99
2022-08-17T13:43:35.106Z,112
2022-08-17T13:48:35.097Z,113
2022-08-17T13:53:35.652Z,80
2022-08-17T13:58:35.657Z,88
2022-08-17T14:03:35.636Z,119
2022-08-17T14:08:35.635Z,118
2022-08-17T14:13:35.661Z,126
2022-08-17T14:18:50.681Z,140
2022-08-17T14:23:35.661Z,164
2022-08-17T14:28:36.361Z,217
2022-08-17T14:33:37.008Z,277
2022-08-17T14:38:36.767Z,307
2022-08-17T14:43:36.751Z,262
2022-08-17T14:48:36.732Z,426
2022-08-17T14:53:36.755Z,395
2022-08-17T14:58:36.714Z,257
2022-08-17T15:03:36.705Z,212
2022-08-17T15:08:36.725Z,151
2022-08-17T15:13:36.833Z,159
2022-08-17T15:18:37.493Z,293
2022-08-17T15:23:37.441Z,303
2022-08-17T15:28:37.456Z,245
2022-08-17T15:33:37.463Z,199
2022-08-17T15:38:37.484Z,220
2022-08-17T15:43:37.473Z,209
2022-08-17T15:48:37.436Z,137
2022-08-17T15:53:37.722Z,131
2022-08-17T15:58:37.470Z,196
2022-08-17T16:03:46.656Z,230
2022-08-17T16:08:37.484Z,170
2022-08-17T16:13:37.454Z,158
2022-08-17T16:18:37.762Z,154
2022-08-17T16:23:37.681Z,108
2022-08-17T16:28:37.719Z,109
2022-08-17T16:33:37.704Z,94
2022-08-17T16:38:37.703Z,62
2022-08-17T16:43:37.708Z,36
2022-08-17T16:48:37.708Z,36
2022-08-17T16:53:37.930Z,37
2022-08-17T16:58:37.724Z,36
2022-08-17T17:03:37.696Z,34
2022-08-17T17:08:42.202Z,36
2022-08-17T17:13:37.685Z,39
2022-08-17T17:18:37.711Z,43
2022-08-17T17:23:37.704Z,47
2022-08-17T17:28:37.747Z,55
2022-08-17T17:33:37.685Z,54
2022-08-17T17:38:37.725Z,54
2022-08-17T17:43:39.881Z,45
2022-08-17T17:48:37.693Z,36
2022-08-17T17:53:41.721Z,26
2022-08-17T17:58:37.686Z,19
2022-08-17T18:03:37.686Z,14
2022-08-17T18:08:37.669Z,19
2022-08-17T18:13:37.662Z,11
2022-08-17T18:18:38.049Z,8
2022-08-17T18:23:37.747Z,10
2022-08-17T18:28:37.668Z,8
2022-08-17T18:33:37.667Z,1
2022-08-17T18:38:37.638Z,0
2022-08-17T18:43:44.607Z,0
2022-08-17T18:48:37.669Z,0
2022-08-17T18:53:37.709Z,0
2022-08-17T18:58:37.675Z,0
2022-08-17T19:03:37.672Z,0
2022-08-17T19:08:37.694Z,0
2022-08-17T19:13:37.683Z,0
2022-08-17T19:18:37.651Z,0
2022-08-17T19:23:37.694Z,0
2022-08-17T19:28:37.661Z,0
2022-08-17T19:33:37.699Z,0
2022-08-17T19:38:37.689Z,0
2022-08-17T19:43:37.665Z,0
2022-08-17T19:48:37.667Z,0
2022-08-17T19:54:02.002Z,0
2022-08-17T19:58:37.670Z,0
2022-08-17T20:03:37.687Z,0
2022-08-17T20:08:37.680Z,0
2022-08-17T20:13:37.671Z,0
2022-08-17T20:18:37.680Z,0
2022-08-17T20:23:37.657Z,0
2022-08-17T20:28:37.673Z,0
2022-08-17T20:33:37.670Z,0
2022-08-17T20:38:37.682Z,0
2022-08-17T20:43:37.650Z,0
2022-08-17T20:48:38.839Z,0
2022-08-17T20:53:37.687Z,0
2022-08-17T20:58:37.632Z,0
2022-08-17T21:03:49.170Z,0
2022-08-17T21:08:39.451Z,0
2022-08-17T21:13:37.655Z,0
2022-08-17T21:18:37.674Z,0
2022-08-17T21:23:37.676Z,0
2022-08-17T21:28:37.645Z,0
2022-08-17T21:33:37.643Z,0
2022-08-17T21:38:37.629Z,0
2022-08-17T21:43:37.639Z,0
2022-08-17T21:48:37.630Z,0
2022-08-17T21:53:37.653Z,0
2022-08-17T21:58:37.643Z,0
2022-08-17T22:03:37.620Z,0
2022-08-17T22:08:37.686Z,0
2022-08-17T22:13:37.646Z,0
2022-08-17T22:18:37.652Z,0
2022-08-17T22:23:37.620Z,0
2022-08-17T22:28:37.647Z,0
2022-08-17T22:33:37.638Z,0
2022-08-17T22:38:37.622Z,0
2022-08-17T22:43:37.596Z,0
2022-08-17T22:48:37.612Z,0
2022-08-17T22:53:37.613Z,0
2022-08-17T22:58:37.614Z,0
2022-08-17T23:03:37.639Z,0
2022-08-17T23:08:37.620Z,0
2022-08-17T23:13:37.629Z,0
2022-08-17T23:18:37.596Z,0
2022-08-17T23:23:37.608Z,0
2022-08-17T23:28:37.616Z,0
2022-08-17T23:33:37.603Z,0
2022-08-17T23:38:37.621Z,0
2022-08-17T23:43:37.612Z,0
2022-08-17T23:48:37.605Z,0
2022-08-17T23:53:37.628Z,0
2022-08-17T23:58:37.623Z,0
